createdAt,value
2023-03-03T00:04:06.259Z,91.20
2023-03-03T00:09:08.986Z,90.85
2023-03-03T00:14:23.004Z,91.44
2023-03-03T00:19:27.114Z,92.53
2023-03-03T00:24:38.308Z,93.15
2023-03-03T00:29:45.921Z,90.36
2023-03-03T00:34:51.076Z,89.60
2023-03-03T00:39:53.883Z,91.62
2023-03-03T00:45:00.632Z,95.33
2023-03-03T00:50:30.566Z,95.41
2023-03-03T00:55:35.373Z,96.78
2023-03-03T01:00:39.997Z,96.56
2023-03-03T01:05:46.229Z,94.91
2023-03-03T01:10:51.828Z,94.35
2023-03-03T01:15:55.226Z,93.61
2023-03-03T01:20:59.518Z,96.10
2023-03-03T01:26:02.690Z,96.94
2023-03-03T01:31:06.775Z,95.45
2023-03-03T01:36:11.605Z,93.25
2023-03-03T01:41:14.309Z,94.62
2023-03-03T01:46:44.113Z,94.43
2023-03-03T01:51:51.958Z,95.21
2023-03-03T01:57:00.360Z,94.52
2023-03-03T02:02:03.144Z,94.10
2023-03-03T02:07:11.007Z,95.20
2023-03-03T02:12:17.710Z,96.11
2023-03-03T02:17:21.019Z,95.60
2023-03-03T02:22:45.209Z,96.06
2023-03-03T02:27:49.347Z,94.87
2023-03-03T02:32:52.212Z,99.12
2023-03-03T02:37:57.848Z,98.51
2023-03-03T02:43:05.963Z,98.14
2023-03-03T02:48:08.805Z,95.33
2023-03-03T02:53:11.572Z,94.94
2023-03-03T02:58:16.619Z,96.40
2023-03-03T03:03:19.502Z,96.56
2023-03-03T03:08:23.239Z,95.61
2023-03-03T03:13:28.203Z,96.09
2023-03-03T03:18:31.169Z,92.92
2023-03-03T03:23:35.688Z,91.84
2023-03-03T03:28:40.257Z,94.49
2023-03-03T03:33:43.470Z,94.15
2023-03-03T03:38:47.389Z,93.01
2023-03-03T03:43:51.616Z,94.33
2023-03-03T03:48:54.602Z,94.87
2023-03-03T03:53:57.940Z,95.87
2023-03-03T03:59:02.415Z,95.72
2023-03-03T04:04:05.494Z,94.44
2023-03-03T04:09:08.806Z,95.13
2023-03-03T04:14:13.137Z,96.86
2023-03-03T04:19:15.934Z,97.15
2023-03-03T04:24:19.761Z,97.19
2023-03-03T04:29:26.423Z,90.86
2023-03-03T04:34:29.541Z,94.61
2023-03-03T04:39:32.681Z,93.96
2023-03-03T04:44:36.853Z,96.49
2023-03-03T04:49:40.169Z,94.78
2023-03-03T04:54:43.137Z,96.44
2023-03-03T04:59:47.608Z,96.03
2023-03-03T05:04:50.486Z,96.37
2023-03-03T05:09:53.402Z,95.69
2023-03-03T05:14:57.517Z,94.60
2023-03-03T05:20:00.332Z,94.96
2023-03-03T05:25:03.055Z,95.60
2023-03-03T05:30:08.612Z,94.86
2023-03-03T05:35:11.577Z,94.47
2023-03-03T05:40:15.317Z,94.55
2023-03-03T05:45:21.263Z,96.97
2023-03-03T05:50:24.875Z,96.44
2023-03-03T05:55:27.662Z,96.75
2023-03-03T06:00:31.787Z,95.31
2023-03-03T06:05:34.735Z,92.51
2023-03-03T06:10:37.535Z,92.53
2023-03-03T06:15:44.394Z,94.13
2023-03-03T06:20:47.148Z,91.18
2023-03-03T06:25:50.444Z,93.42
2023-03-03T06:30:56.115Z,93.33
2023-03-03T06:35:58.927Z,93.02
2023-03-03T06:41:02.496Z,94.51
2023-03-03T06:46:07.457Z,95.78
2023-03-03T06:51:23.670Z,95.42
2023-03-03T06:56:27.666Z,95.85
2023-03-03T07:01:36.163Z,97.11
2023-03-03T07:06:39.005Z,97.37
2023-03-03T07:11:41.834Z,93.86
2023-03-03T07:16:46.383Z,93.85
2023-03-03T07:21:49.348Z,92.89
2023-03-03T07:26:52.683Z,96.13
2023-03-03T07:31:58.188Z,94.78
2023-03-03T07:37:06.311Z,95.45
2023-03-03T07:42:26.163Z,93.87
2023-03-03T07:47:38.670Z,92.56
2023-03-03T07:52:42.922Z,90.92
2023-03-03T07:57:47.114Z,88.72
2023-03-03T08:02:58.509Z,85.59
2023-03-03T08:08:17.807Z,86.13
2023-03-03T08:13:22.389Z,85.84
2023-03-03T08:18:29.886Z,85.89
2023-03-03T08:23:32.658Z,87.91
2023-03-03T08:28:35.425Z,83.55
2023-03-03T08:33:40.055Z,85.35
2023-03-03T08:38:42.969Z,81.25
2023-03-03T08:43:46.085Z,81.35
2023-03-03T08:48:50.407Z,81.09
2023-03-03T08:53:53.230Z,82.22
2023-03-03T08:59:03.482Z,84.82
2023-03-03T09:04:08.024Z,83.55
2023-03-03T09:09:10.782Z,84.81
2023-03-03T09:14:15.052Z,82.40
2023-03-03T09:19:24.204Z,80.87
2023-03-03T09:24:28.411Z,81.43
2023-03-03T09:29:32.947Z,82.23
2023-03-03T09:34:42.367Z,83.41
2023-03-03T09:39:47.504Z,84.96
2023-03-03T09:45:19.516Z,85.12
2023-03-03T09:50:36.941Z,80.81
2023-03-03T09:55:48.928Z,80.25
2023-03-03T10:01:00.496Z,79.15
2023-03-03T10:06:10.138Z,75.24
2023-03-03T10:11:21.335Z,74.97
2023-03-03T10:16:40.890Z,72.80
2023-03-03T10:21:52.121Z,70.16
2023-03-03T10:27:14.558Z,70.88
2023-03-03T10:32:34.062Z,73.11
2023-03-03T10:37:49.819Z,72.45
2023-03-03T10:43:13.691Z,74.26
2023-03-03T10:48:39.920Z,75.68
2023-03-03T10:53:50.022Z,72.16
2023-03-03T10:59:04.756Z,79.64
2023-03-03T11:04:30.338Z,72.40
2023-03-03T11:09:51.809Z,75.72
2023-03-03T11:15:12.381Z,73.15
2023-03-03T11:20:29.549Z,73.56
2023-03-03T11:25:40.897Z,77.61
2023-03-03T11:31:03.317Z,74.00
2023-03-03T11:36:13.480Z,75.10
2023-03-03T11:41:28.907Z,75.12
2023-03-03T11:46:37.684Z,73.21
2023-03-03T11:51:50.145Z,72.94
2023-03-03T11:56:59.760Z,73.91
2023-03-03T12:02:12.027Z,73.50
2023-03-03T12:07:26.520Z,70.83
2023-03-03T12:12:35.939Z,62.23
2023-03-03T12:18:03.643Z,61.93
2023-03-03T12:23:19.750Z,60.92
2023-03-03T12:28:27.087Z,57.83
2023-03-03T12:33:40.266Z,63.22
2023-03-03T12:38:52.025Z,62.07
2023-03-03T12:44:03.668Z,58.02
2023-03-03T12:49:06.452Z,58.03
2023-03-03T12:54:37.480Z,59.34
2023-03-03T12:59:53.203Z,59.99
2023-03-03T13:05:01.849Z,61.51
2023-03-03T13:10:16.462Z,61.08
2023-03-03T13:15:31.688Z,61.46
2023-03-03T13:20:45.622Z,56.94
2023-03-03T13:25:54.148Z,55.84
2023-03-03T13:31:04.085Z,53.63
2023-03-03T13:36:10.213Z,56.95
2023-03-03T13:41:21.732Z,54.91
2023-03-03T13:46:39.513Z,54.44
2023-03-03T13:51:48.758Z,56.93
2023-03-03T13:57:15.391Z,59.00
2023-03-03T14:02:42.382Z,57.96
2023-03-03T14:07:53.252Z,57.96
2023-03-03T14:13:04.434Z,57.98
2023-03-03T14:18:22.780Z,55.67
2023-03-03T14:23:32.505Z,54.43
2023-03-03T14:28:41.228Z,55.51
2023-03-03T14:33:57.412Z,57.25
2023-03-03T14:39:00.923Z,55.21
2023-03-03T14:44:25.022Z,55.13
2023-03-03T14:49:33.352Z,54.51
2023-03-03T14:54:40.388Z,54.25
2023-03-03T14:59:56.867Z,54.71
2023-03-03T15:05:23.111Z,56.49
2023-03-03T15:10:34.921Z,56.86
2023-03-03T15:15:53.701Z,57.22
2023-03-03T15:21:02.013Z,57.63
2023-03-03T15:26:10.865Z,57.48
2023-03-03T15:31:26.198Z,58.00
2023-03-03T15:36:40.191Z,59.80
2023-03-03T15:41:45.958Z,61.22
2023-03-03T15:47:05.611Z,60.50
2023-03-03T15:52:23.637Z,60.73
2023-03-03T15:57:42.045Z,61.83
2023-03-03T16:02:53.727Z,61.76
2023-03-03T16:08:06.060Z,60.23
2023-03-03T16:13:23.486Z,59.79
2023-03-03T16:18:38.857Z,60.57
2023-03-03T16:23:48.825Z,61.63
2023-03-03T16:29:08.644Z,62.11
2023-03-03T16:34:19.360Z,62.84
2023-03-03T16:39:31.005Z,63.68
2023-03-03T16:44:43.246Z,61.19
2023-03-03T16:49:53.352Z,63.72
2023-03-03T16:55:04.115Z,63.45
2023-03-03T17:00:13.214Z,65.21
2023-03-03T17:05:29.170Z,64.54
2023-03-03T17:10:37.956Z,65.22
2023-03-03T17:15:49.518Z,65.46
2023-03-03T17:20:57.346Z,64.30
2023-03-03T17:26:09.884Z,65.98
2023-03-03T17:31:22.413Z,65.65
2023-03-03T17:36:37.215Z,68.22
2023-03-03T17:41:47.236Z,66.59
2023-03-03T17:46:54.979Z,67.84
2023-03-03T17:52:21.252Z,68.24
2023-03-03T17:57:36.617Z,67.71
2023-03-03T18:02:54.356Z,68.80
2023-03-03T18:08:12.672Z,67.93
2023-03-03T18:13:34.421Z,67.67
2023-03-03T18:18:55.342Z,68.92
2023-03-03T18:24:27.775Z,69.61
2023-03-03T18:29:32.546Z,70.14
2023-03-03T18:34:38.135Z,71.11
2023-03-03T18:39:45.585Z,70.89
2023-03-03T18:44:49.950Z,71.74
2023-03-03T18:49:59.285Z,72.08
2023-03-03T18:55:20.834Z,72.30
2023-03-03T19:00:30.139Z,72.50
2023-03-03T19:05:47.238Z,73.53
2023-03-03T19:10:53.514Z,74.20
2023-03-03T19:15:59.750Z,75.17
2023-03-03T19:21:05.630Z,74.78
2023-03-03T19:26:38.164Z,75.02
2023-03-03T19:31:48.144Z,75.74
2023-03-03T19:37:12.510Z,78.71
2023-03-03T19:42:25.999Z,77.55
2023-03-03T19:47:39.737Z,78.15
2023-03-03T19:52:47.773Z,78.63
2023-03-03T19:57:59.833Z,75.83
2023-03-03T20:03:34.984Z,76.90
2023-03-03T20:08:44.984Z,78.41
2023-03-03T20:13:59.667Z,75.81
2023-03-03T20:19:17.412Z,77.93
2023-03-03T20:24:42.502Z,79.04
2023-03-03T20:30:03.351Z,79.11
2023-03-03T20:35:21.114Z,77.24
2023-03-03T20:40:34.092Z,77.37
2023-03-03T20:45:49.779Z,81.03
2023-03-03T20:51:03.452Z,78.83
2023-03-03T20:56:14.435Z,78.89
2023-03-03T21:01:28.336Z,78.79
2023-03-03T21:06:40.759Z,78.73
2023-03-03T21:11:44.993Z,79.97
2023-03-03T21:16:48.086Z,77.49
2023-03-03T21:21:53.212Z,76.36
2023-03-03T21:26:57.069Z,77.51
2023-03-03T21:32:01.222Z,79.07
2023-03-03T21:37:07.081Z,83.00
2023-03-03T21:42:12.014Z,83.21
2023-03-03T21:47:16.353Z,82.48
2023-03-03T21:52:21.829Z,81.88
2023-03-03T21:57:25.023Z,81.65
2023-03-03T22:02:27.820Z,82.17
2023-03-03T22:07:32.015Z,80.95
2023-03-03T22:12:34.718Z,79.56
2023-03-03T22:17:37.474Z,80.43
2023-03-03T22:22:41.519Z,81.05
2023-03-03T22:27:44.249Z,81.11
2023-03-03T22:32:46.983Z,80.19
2023-03-03T22:37:51.056Z,77.96
2023-03-03T22:42:53.782Z,77.63
2023-03-03T22:47:56.542Z,79.29
2023-03-03T22:53:00.642Z,77.44
2023-03-03T22:58:03.710Z,78.04
2023-03-03T23:03:06.940Z,76.67
2023-03-03T23:08:14.904Z,77.05
2023-03-03T23:13:17.857Z,75.87
2023-03-03T23:18:20.582Z,74.59
2023-03-03T23:23:25.344Z,78.00
2023-03-03T23:28:28.353Z,77.39
2023-03-03T23:33:31.089Z,79.18
2023-03-03T23:38:35.186Z,78.25
2023-03-03T23:43:37.937Z,76.64
2023-03-03T23:48:40.695Z,75.93
2023-03-03T23:53:44.778Z,74.00
2023-03-03T23:58:47.681Z,74.71
